Terminal Aerodrome Forecast
Issued by NWS Charleston, WV

Current Version | Previous Version | Graphics & Text | Print | Product List | Glossary On
Versions: 1 2 3 4 5 6 7 8 9 10 11 12 13 14 15 16 17 18 19 20 21 22 23 24 25 26 27
000
FTUS41 KRLX 180500
TAFEKN
TAF
KEKN 180521Z 1806/1906 00000KT 2SM BR SCT001 BKN080
     FM180700 00000KT 1/4SM FG VV001
     FM181200 00000KT 3SM BR SCT001 BKN040
     FM181400 14004KT P6SM BKN035
     FM181600 15005KT 5SM BR VCTS OVC020CB
     FM190000 00000KT 6SM BR VCTS BKN015CB
     FM190400 00000KT P6SM BKN010=

USA.gov is the U.S. government's official web portal to all federal, state and local government web resources and services.